createdAt,value
2018-06-13T00:02:27.277Z,4.83
2018-06-13T00:04:56.053Z,4.90
2018-06-13T00:07:24.817Z,4.90
2018-06-13T00:09:53.577Z,4.10
2018-06-13T00:12:22.339Z,4.03
2018-06-13T00:14:51.125Z,3.77
2018-06-13T00:17:19.917Z,3.57
2018-06-13T00:19:48.849Z,5.00
2018-06-13T00:22:17.389Z,3.87
2018-06-13T00:24:46.077Z,4.10
2018-06-13T00:27:14.853Z,3.93
2018-06-13T00:29:43.830Z,3.60
2018-06-13T00:35:04.012Z,3.60
2018-06-13T00:37:32.793Z,3.70
2018-06-13T00:40:01.538Z,3.50
2018-06-13T00:42:30.326Z,4.43
2018-06-13T00:44:59.089Z,3.57
2018-06-13T00:47:27.914Z,3.73
2018-06-13T00:49:56.672Z,3.50
2018-06-13T00:52:25.425Z,3.50
2018-06-13T00:54:54.190Z,3.93
2018-06-13T00:57:22.969Z,4.37
2018-06-13T00:59:51.750Z,4.17
2018-06-13T01:02:20.533Z,4.23
2018-06-13T01:04:49.317Z,4.17
2018-06-13T01:07:18.098Z,4.27
2018-06-13T01:09:46.931Z,4.90
2018-06-13T01:12:15.517Z,3.97
2018-06-13T01:14:44.189Z,4.40
2018-06-13T01:17:12.980Z,4.03
2018-06-13T01:19:41.756Z,4.20
2018-06-13T01:22:10.546Z,3.67
2018-06-13T01:24:39.426Z,4.20
2018-06-13T01:27:08.213Z,4.63
2018-06-13T01:29:37.013Z,4.30
2018-06-13T01:32:05.785Z,3.90
2018-06-13T01:34:34.606Z,4.23
2018-06-13T01:37:03.393Z,3.60
2018-06-13T01:39:32.182Z,4.10
2018-06-13T01:42:00.942Z,4.07
2018-06-13T01:44:29.733Z,4.37
2018-06-13T01:46:58.504Z,3.33
2018-06-13T01:49:27.276Z,3.87
2018-06-13T01:51:56.029Z,3.07
2018-06-13T01:54:24.723Z,3.03
2018-06-13T01:56:53.413Z,3.00
2018-06-13T01:59:22.179Z,3.00
2018-06-13T02:01:50.765Z,2.87
2018-06-13T02:04:19.453Z,2.97
2018-06-13T02:06:48.030Z,3.37
2018-06-13T02:09:16.553Z,3.63
2018-06-13T02:11:45.220Z,3.27
2018-06-13T02:14:14.001Z,3.00
2018-06-13T02:16:42.564Z,3.43
2018-06-13T02:19:11.237Z,3.60
2018-06-13T02:21:40.030Z,2.70
2018-06-13T02:24:08.841Z,3.53
2018-06-13T02:26:37.798Z,3.90
2018-06-13T02:29:10.569Z,2.97
2018-06-13T02:31:39.402Z,3.03
2018-06-13T02:34:08.044Z,2.60
2018-06-13T02:36:36.717Z,2.50
2018-06-13T02:39:07.473Z,3.10
2018-06-13T02:41:37.325Z,3.07
2018-06-13T02:44:05.956Z,2.70
2018-06-13T02:46:34.634Z,3.90
2018-06-13T02:49:03.431Z,3.30
2018-06-13T02:51:32.182Z,3.10
2018-06-13T02:54:00.953Z,3.33
2018-06-13T02:56:29.548Z,2.80
2018-06-13T02:58:58.224Z,2.90
2018-06-13T03:01:26.812Z,2.70
2018-06-13T03:03:55.490Z,2.80
2018-06-13T03:06:24.076Z,2.50
2018-06-13T03:08:52.779Z,2.37
2018-06-13T03:11:21.587Z,2.60
2018-06-13T03:13:50.348Z,2.93
2018-06-13T03:16:18.941Z,2.93
2018-06-13T03:18:47.421Z,3.23
2018-06-13T03:21:16.090Z,2.67
2018-06-13T03:23:44.687Z,2.10
2018-06-13T03:26:13.417Z,2.70
2018-06-13T03:28:42.177Z,2.83
2018-06-13T03:31:10.932Z,2.80
2018-06-13T03:33:39.698Z,2.30
2018-06-13T03:36:08.457Z,3.00
2018-06-13T03:38:37.336Z,2.70
2018-06-13T03:41:06.184Z,2.90
2018-06-13T03:43:34.905Z,2.70
2018-06-13T03:46:03.729Z,2.77
2018-06-13T03:48:32.517Z,2.70
2018-06-13T03:51:01.288Z,2.40
2018-06-13T03:53:30.052Z,2.47
2018-06-13T03:55:58.805Z,2.80
2018-06-13T03:58:27.573Z,3.13
2018-06-13T04:00:56.334Z,3.23
2018-06-13T04:03:25.068Z,2.60
2018-06-13T04:05:53.854Z,2.70
2018-06-13T04:08:22.625Z,2.73
2018-06-13T04:10:51.396Z,2.70
2018-06-13T04:13:20.200Z,2.13
2018-06-13T04:15:49.019Z,2.53
2018-06-13T04:18:17.778Z,2.13
2018-06-13T04:20:46.569Z,2.67
2018-06-13T04:23:15.349Z,3.77
2018-06-13T04:25:44.146Z,2.60
2018-06-13T04:28:12.944Z,2.73
2018-06-13T04:30:41.721Z,2.87
2018-06-13T04:33:10.517Z,2.70
2018-06-13T04:35:39.289Z,2.33
2018-06-13T04:38:08.067Z,2.70
2018-06-13T04:40:37.026Z,3.10
2018-06-13T04:43:05.755Z,2.37
2018-06-13T04:45:34.674Z,2.67
2018-06-13T04:48:03.434Z,2.30
2018-06-13T04:50:32.216Z,1.97
2018-06-13T04:53:00.997Z,2.03
2018-06-13T04:55:29.753Z,3.03
2018-06-13T04:57:58.541Z,2.67
2018-06-13T05:00:27.325Z,2.47
2018-06-13T05:02:56.129Z,2.13
2018-06-13T05:05:24.949Z,2.40
2018-06-13T05:07:53.758Z,2.30
2018-06-13T05:10:22.769Z,2.13
2018-06-13T05:12:51.534Z,2.50
2018-06-13T05:15:20.324Z,2.30
2018-06-13T05:17:49.128Z,2.13
2018-06-13T05:20:17.918Z,2.30
2018-06-13T05:22:46.747Z,2.10
2018-06-13T05:25:15.753Z,3.97
2018-06-13T05:27:44.570Z,2.30
2018-06-13T05:30:13.358Z,3.10
2018-06-13T05:32:42.125Z,2.27
2018-06-13T05:35:10.917Z,2.10
2018-06-13T05:37:39.661Z,2.27
2018-06-13T05:40:08.252Z,1.83
2018-06-13T05:42:37.124Z,2.40
2018-06-13T05:45:05.721Z,2.47
2018-06-13T05:47:34.445Z,2.23
2018-06-13T05:50:03.209Z,2.30
2018-06-13T05:52:31.956Z,2.10
2018-06-13T05:55:00.768Z,2.70
2018-06-13T05:57:29.518Z,1.70
2018-06-13T05:59:58.305Z,1.90
2018-06-13T06:02:27.109Z,1.87
2018-06-13T06:04:55.881Z,2.13
2018-06-13T06:07:24.665Z,1.80
2018-06-13T06:09:53.434Z,1.80
2018-06-13T06:12:22.205Z,1.60
2018-06-13T06:14:50.986Z,1.33
2018-06-13T06:17:19.741Z,1.67
2018-06-13T06:19:48.517Z,2.47
2018-06-13T06:22:17.285Z,1.80
2018-06-13T06:24:46.074Z,1.83
2018-06-13T06:27:14.889Z,2.07
2018-06-13T06:29:43.659Z,1.90
2018-06-13T06:32:12.434Z,1.57
2018-06-13T06:34:41.189Z,1.77
2018-06-13T06:37:09.945Z,1.57
2018-06-13T06:39:38.899Z,1.90
2018-06-13T06:42:07.691Z,1.93
2018-06-13T06:44:36.226Z,1.93
2018-06-13T06:47:04.700Z,2.03
2018-06-13T06:49:33.495Z,1.47
2018-06-13T06:52:02.221Z,1.63
2018-06-13T06:54:30.988Z,1.83
2018-06-13T06:56:59.763Z,1.53
2018-06-13T06:59:28.383Z,1.20
2018-06-13T07:01:57.069Z,1.97
2018-06-13T07:04:25.829Z,1.37
2018-06-13T07:06:54.600Z,1.40
2018-06-13T07:09:23.393Z,2.10
2018-06-13T07:11:51.985Z,1.80
2018-06-13T07:14:20.647Z,1.70
2018-06-13T07:16:49.444Z,1.77
2018-06-13T07:19:18.210Z,1.90
2018-06-13T07:21:46.968Z,1.80
2018-06-13T07:24:15.716Z,1.80
2018-06-13T07:26:44.275Z,2.20
2018-06-13T07:29:12.949Z,1.60
2018-06-13T07:31:41.721Z,1.50
2018-06-13T07:34:10.535Z,1.90
2018-06-13T07:36:39.320Z,1.83
2018-06-13T07:39:09.349Z,1.67
2018-06-13T07:41:38.176Z,2.63
2018-06-13T07:44:06.925Z,2.47
2018-06-13T07:46:35.937Z,1.57
2018-06-13T07:49:04.521Z,1.60
2018-06-13T07:51:33.214Z,2.10
2018-06-13T07:54:01.793Z,2.00
2018-06-13T07:56:30.504Z,2.03
2018-06-13T07:58:59.264Z,1.80
2018-06-13T08:01:27.912Z,1.70
2018-06-13T08:03:56.904Z,1.60
2018-06-13T08:06:25.657Z,1.47
2018-06-13T08:08:54.475Z,1.90
2018-06-13T08:11:23.013Z,1.70
2018-06-13T08:13:51.673Z,1.77
2018-06-13T08:16:20.457Z,1.60
2018-06-13T08:18:49.209Z,1.47
2018-06-13T08:21:18.013Z,1.63
2018-06-13T08:23:46.781Z,1.50
2018-06-13T08:26:15.545Z,1.30
2018-06-13T08:28:44.318Z,1.50
2018-06-13T08:31:13.088Z,1.63
2018-06-13T08:33:41.860Z,1.20
2018-06-13T08:36:10.610Z,1.50
2018-06-13T08:38:39.364Z,1.53
2018-06-13T08:41:08.153Z,1.53
2018-06-13T08:43:36.905Z,1.53
2018-06-13T08:46:05.689Z,1.50
2018-06-13T08:48:34.508Z,2.00
2018-06-13T08:51:03.257Z,1.20
2018-06-13T08:53:32.049Z,1.30
2018-06-13T08:56:00.840Z,1.90
2018-06-13T08:58:29.650Z,1.30
2018-06-13T09:00:58.433Z,1.40
2018-06-13T09:03:27.213Z,1.30
2018-06-13T09:05:55.986Z,1.97
2018-06-13T09:08:24.737Z,1.63
2018-06-13T09:10:53.347Z,1.53
2018-06-13T09:13:22.081Z,1.60
2018-06-13T09:15:50.856Z,1.20
2018-06-13T09:18:19.645Z,1.27
2018-06-13T09:20:48.429Z,1.20
2018-06-13T09:23:17.216Z,1.43
2018-06-13T09:25:46.080Z,1.63
2018-06-13T09:28:14.585Z,1.20
2018-06-13T09:30:43.277Z,1.23
2018-06-13T09:33:12.065Z,2.10
2018-06-13T09:35:40.885Z,1.43
2018-06-13T09:38:09.701Z,1.93
2018-06-13T09:40:38.444Z,1.33
2018-06-13T09:43:07.201Z,1.37
2018-06-13T09:45:35.953Z,1.33
2018-06-13T09:48:04.725Z,1.87
2018-06-13T09:50:33.480Z,1.40
2018-06-13T09:53:02.294Z,1.20
2018-06-13T09:55:31.061Z,1.30
2018-06-13T09:57:59.842Z,1.60
2018-06-13T10:00:34.224Z,1.20
2018-06-13T10:03:03.006Z,1.93
2018-06-13T10:05:31.765Z,1.50
2018-06-13T10:08:00.549Z,1.37
2018-06-13T10:10:29.312Z,1.20
2018-06-13T10:12:58.071Z,1.53
2018-06-13T10:15:26.841Z,1.60
2018-06-13T10:17:55.601Z,1.33
2018-06-13T10:20:24.404Z,1.33
2018-06-13T10:22:53.181Z,1.50
2018-06-13T10:25:21.966Z,1.50
2018-06-13T10:27:50.719Z,1.43
2018-06-13T10:30:19.485Z,2.30
2018-06-13T10:32:48.255Z,1.37
2018-06-13T10:35:16.981Z,2.03
2018-06-13T10:37:45.747Z,1.57
2018-06-13T10:40:14.517Z,1.20
2018-06-13T10:42:43.065Z,1.73
2018-06-13T10:45:11.823Z,1.77
2018-06-13T10:47:40.565Z,1.50
2018-06-13T10:50:09.324Z,1.50
2018-06-13T10:52:38.113Z,1.10
2018-06-13T10:55:06.881Z,1.60
2018-06-13T10:57:35.770Z,1.90
2018-06-13T11:00:04.689Z,1.23
2018-06-13T11:02:33.470Z,1.20
2018-06-13T11:05:02.285Z,1.50
2018-06-13T11:07:30.929Z,1.40
2018-06-13T11:09:59.621Z,1.67
2018-06-13T11:12:28.394Z,1.60
2018-06-13T11:14:57.193Z,1.93
2018-06-13T11:17:25.946Z,1.53
2018-06-13T11:19:54.713Z,2.10
2018-06-13T11:22:23.303Z,1.87
2018-06-13T11:24:52.069Z,1.70
2018-06-13T11:27:21.052Z,1.90
2018-06-13T11:29:49.837Z,1.90
2018-06-13T11:32:18.605Z,1.77
2018-06-13T11:34:47.395Z,1.77
2018-06-13T11:37:16.201Z,1.50
2018-06-13T11:39:44.980Z,2.40
2018-06-13T11:42:13.777Z,1.90
2018-06-13T11:44:42.561Z,2.17
2018-06-13T11:47:11.346Z,2.30
2018-06-13T11:49:40.105Z,1.50
2018-06-13T11:52:08.865Z,1.40
2018-06-13T11:54:37.461Z,1.50
2018-06-13T11:57:06.146Z,1.87
2018-06-13T11:59:34.712Z,2.00
2018-06-13T12:02:03.385Z,1.80
2018-06-13T12:04:32.166Z,2.63
2018-06-13T12:07:00.922Z,2.13
2018-06-13T12:09:29.865Z,1.77
2018-06-13T12:11:58.629Z,1.80
2018-06-13T12:14:27.420Z,2.07
2018-06-13T12:16:57.070Z,1.73
2018-06-13T12:19:25.676Z,2.03
2018-06-13T12:21:54.534Z,1.83
2018-06-13T12:24:23.428Z,1.30
2018-06-13T12:26:52.020Z,1.40
2018-06-13T12:29:20.689Z,1.63
2018-06-13T12:31:49.453Z,1.80
2018-06-13T12:34:18.393Z,2.50
2018-06-13T12:36:47.213Z,1.37
2018-06-13T12:39:15.976Z,1.70
2018-06-13T12:41:44.753Z,1.70
2018-06-13T12:44:13.532Z,1.40
2018-06-13T12:46:42.437Z,1.73
2018-06-13T12:49:11.188Z,1.80
2018-06-13T12:51:39.963Z,1.73
2018-06-13T12:54:08.748Z,1.77
2018-06-13T12:56:37.615Z,1.73
2018-06-13T12:59:06.165Z,1.60
2018-06-13T13:01:34.866Z,1.90
2018-06-13T13:04:03.626Z,1.90
2018-06-13T13:06:32.521Z,2.07
2018-06-13T13:09:01.306Z,1.70
2018-06-13T13:11:29.785Z,1.90
2018-06-13T13:13:58.327Z,1.50
2018-06-13T13:16:27.057Z,1.87
2018-06-13T13:18:55.648Z,2.03
2018-06-13T13:21:24.321Z,1.60
2018-06-13T13:23:53.092Z,2.20
2018-06-13T13:26:21.855Z,1.60
2018-06-13T13:28:50.741Z,1.37
2018-06-13T13:31:19.541Z,1.70
2018-06-13T13:33:48.301Z,1.43
2018-06-13T13:36:17.058Z,1.70
2018-06-13T13:38:45.841Z,1.70
2018-06-13T13:41:14.728Z,2.10
2018-06-13T13:43:43.534Z,1.83
2018-06-13T13:46:12.116Z,1.73
2018-06-13T13:48:40.793Z,1.77
2018-06-13T13:51:09.689Z,1.53
2018-06-13T13:53:38.252Z,3.93
2018-06-13T13:56:06.925Z,13.70
2018-06-13T13:58:35.730Z,7.23
2018-06-13T14:01:04.519Z,7.10
2018-06-13T14:03:33.297Z,4.03
2018-06-13T14:06:02.061Z,3.80
2018-06-13T14:08:30.906Z,3.30
2018-06-13T14:10:59.453Z,3.90
2018-06-13T14:13:28.129Z,2.90
2018-06-13T14:15:56.932Z,2.40
2018-06-13T14:18:25.695Z,2.53
2018-06-13T14:20:54.453Z,1.93
2018-06-13T14:23:23.221Z,2.03
2018-06-13T14:25:52.011Z,2.30
2018-06-13T14:28:20.788Z,2.30
2018-06-13T14:30:49.759Z,3.33
2018-06-13T14:33:18.590Z,2.23
2018-06-13T14:35:47.532Z,1.80
2018-06-13T14:38:16.281Z,1.60
2018-06-13T14:40:45.047Z,1.80
2018-06-13T14:43:13.870Z,1.57
2018-06-13T14:45:42.633Z,2.33
2018-06-13T14:48:11.191Z,1.77
2018-06-13T14:50:40.219Z,1.60
2018-06-13T14:53:08.968Z,1.87
2018-06-13T14:55:41.983Z,1.60
2018-06-13T14:58:10.740Z,1.23
2018-06-13T15:00:39.512Z,1.73
2018-06-13T15:03:08.280Z,1.50
2018-06-13T15:05:37.222Z,1.70
2018-06-13T15:08:06.050Z,1.63
2018-06-13T15:10:34.748Z,1.60
2018-06-13T15:13:03.560Z,1.90
2018-06-13T15:15:32.045Z,1.87
2018-06-13T15:18:00.751Z,1.93
2018-06-13T15:20:29.553Z,1.70
2018-06-13T15:22:58.332Z,1.90
2018-06-13T15:25:27.178Z,1.30
2018-06-13T15:27:55.949Z,1.50
2018-06-13T15:30:24.853Z,1.30
2018-06-13T15:32:53.607Z,1.37
2018-06-13T15:35:22.184Z,1.43
2018-06-13T15:37:50.648Z,2.00
2018-06-13T15:40:19.326Z,1.57
2018-06-13T15:42:48.213Z,1.47
2018-06-13T15:45:17.002Z,1.50
2018-06-13T15:47:45.769Z,1.50
2018-06-13T15:50:14.528Z,2.10
2018-06-13T15:52:43.309Z,2.40
2018-06-13T15:55:11.856Z,1.30
2018-06-13T15:57:40.532Z,1.60
2018-06-13T16:00:09.486Z,1.73
2018-06-13T16:02:38.258Z,1.60
2018-06-13T16:05:06.844Z,1.60
2018-06-13T16:07:35.521Z,1.40
2018-06-13T16:10:04.478Z,1.37
2018-06-13T16:12:33.243Z,1.60
2018-06-13T16:15:02.099Z,1.87
2018-06-13T16:17:30.677Z,1.70
2018-06-13T16:19:59.347Z,2.80
2018-06-13T16:22:28.106Z,2.00
2018-06-13T16:24:56.881Z,1.50
2018-06-13T16:27:25.660Z,1.43
2018-06-13T16:29:55.177Z,1.60
2018-06-13T16:32:23.921Z,2.20
2018-06-13T16:34:52.482Z,1.50
2018-06-13T16:37:21.161Z,1.60
2018-06-13T16:39:49.866Z,1.57
2018-06-13T16:42:18.648Z,1.87
2018-06-13T16:44:47.453Z,1.80
2018-06-13T16:47:16.135Z,1.70
2018-06-13T16:49:45.380Z,1.37
2018-06-13T16:52:25.541Z,1.23
2018-06-13T16:55:17.877Z,1.87
2018-06-13T16:57:47.071Z,1.47
2018-06-13T17:00:15.972Z,1.37
2018-06-13T17:02:44.653Z,1.30
2018-06-13T17:05:13.452Z,1.40
2018-06-13T17:07:42.344Z,1.53
2018-06-13T17:10:11.093Z,1.40
2018-06-13T17:12:40.578Z,1.60
2018-06-13T17:15:09.494Z,1.50
2018-06-13T17:17:38.176Z,1.50
2018-06-13T17:20:06.913Z,1.70
2018-06-13T17:22:36.717Z,1.80
2018-06-13T17:25:05.658Z,2.00
2018-06-13T17:27:34.427Z,1.40
2018-06-13T17:30:03.268Z,1.70
2018-06-13T17:32:32.116Z,1.60
2018-06-13T17:35:02.296Z,1.60
2018-06-13T17:37:31.025Z,1.80
2018-06-13T17:39:59.781Z,2.60
2018-06-13T17:42:28.867Z,1.53
2018-06-13T17:44:57.628Z,1.80
2018-06-13T17:47:26.381Z,1.50
2018-06-13T17:49:55.218Z,1.90
2018-06-13T17:52:24.694Z,1.87
2018-06-13T17:54:53.499Z,1.77
2018-06-13T17:57:22.321Z,2.17
2018-06-13T17:59:51.098Z,1.47
2018-06-13T18:02:19.853Z,2.00
2018-06-13T18:04:48.649Z,1.80
2018-06-13T18:07:17.297Z,1.70
2018-06-13T18:09:46.106Z,1.53
2018-06-13T18:12:14.645Z,1.90
2018-06-13T18:14:43.315Z,1.63
2018-06-13T18:17:12.106Z,1.50
2018-06-13T18:19:40.875Z,1.43
2018-06-13T18:22:09.698Z,1.90
2018-06-13T18:24:38.464Z,1.73
2018-06-13T18:27:07.224Z,1.53
2018-06-13T18:29:36.077Z,1.17
2018-06-13T18:32:04.897Z,1.57
2018-06-13T18:34:33.661Z,1.53
2018-06-13T18:37:02.437Z,1.67
2018-06-13T18:39:31.229Z,1.60
2018-06-13T18:42:00.032Z,1.27
2018-06-13T18:44:28.929Z,1.43
2018-06-13T18:46:57.697Z,1.40
2018-06-13T18:49:26.613Z,1.47
2018-06-13T18:51:55.389Z,1.33
2018-06-13T18:54:24.165Z,1.60
2018-06-13T18:56:52.953Z,1.60
2018-06-13T18:59:21.856Z,1.40
2018-06-13T19:01:50.612Z,1.40
2018-06-13T19:04:21.106Z,1.30
2018-06-13T19:06:49.845Z,1.43
2018-06-13T19:09:18.601Z,1.07
2018-06-13T19:11:47.377Z,1.20
2018-06-13T19:14:16.116Z,1.83
2018-06-13T19:16:44.908Z,1.50
2018-06-13T19:19:13.665Z,1.20
2018-06-13T19:21:42.518Z,1.10
2018-06-13T19:24:11.370Z,1.03
2018-06-13T19:26:40.129Z,1.23
2018-06-13T19:29:08.872Z,1.40
2018-06-13T19:31:37.657Z,1.13
2018-06-13T19:34:06.454Z,1.60
2018-06-13T19:36:35.238Z,1.37
2018-06-13T19:39:05.659Z,1.07
2018-06-13T19:41:34.420Z,1.47
2018-06-13T19:44:03.378Z,1.70
2018-06-13T19:46:32.199Z,1.70
2018-06-13T19:49:00.932Z,1.57
2018-06-13T19:51:29.744Z,1.70
2018-06-13T19:54:03.806Z,1.50
2018-06-13T19:56:33.065Z,1.50
2018-06-13T19:59:01.885Z,1.30
2018-06-13T20:01:30.671Z,1.50
2018-06-13T20:04:04.850Z,1.30
2018-06-13T20:06:37.273Z,1.40
2018-06-13T20:09:07.682Z,1.90
2018-06-13T20:11:36.572Z,1.40
2018-06-13T20:14:10.672Z,1.37
2018-06-13T20:16:49.541Z,1.57
2018-06-13T20:19:24.270Z,1.43
2018-06-13T20:21:54.127Z,1.30
2018-06-13T20:24:22.877Z,1.73
2018-06-13T20:26:56.981Z,1.53
2018-06-13T20:29:31.268Z,1.83
2018-06-13T20:32:00.038Z,1.30
2018-06-13T20:34:28.829Z,1.50
2018-06-13T20:36:57.597Z,1.40
2018-06-13T20:39:26.605Z,1.40
2018-06-13T20:41:55.374Z,1.10
2018-06-13T20:44:24.138Z,1.63
2018-06-13T20:46:52.893Z,1.50
2018-06-13T20:49:21.660Z,1.37
2018-06-13T20:51:50.418Z,1.40
2018-06-13T20:54:19.180Z,1.60
2018-06-13T20:56:47.943Z,1.77
2018-06-13T20:59:16.692Z,1.30
2018-06-13T21:01:45.445Z,1.77
2018-06-13T21:04:14.197Z,1.70
2018-06-13T21:06:42.942Z,2.20
2018-06-13T21:09:11.812Z,1.80
2018-06-13T21:11:40.579Z,1.60
2018-06-13T21:14:09.369Z,1.80
2018-06-13T21:16:38.129Z,1.67
2018-06-13T21:19:06.871Z,1.70
2018-06-13T21:21:35.632Z,1.40
2018-06-13T21:24:04.443Z,2.03
2018-06-13T21:26:33.190Z,1.60
2018-06-13T21:29:01.933Z,1.87
2018-06-13T21:31:30.697Z,1.37
2018-06-13T21:33:59.469Z,1.27
2018-06-13T21:36:28.238Z,1.50
2018-06-13T21:38:57.002Z,1.40
2018-06-13T21:41:25.809Z,1.60
2018-06-13T21:43:54.577Z,1.80
2018-06-13T21:46:23.348Z,1.80
2018-06-13T21:48:52.404Z,2.10
2018-06-13T21:51:21.186Z,1.20
2018-06-13T21:53:49.928Z,1.63
2018-06-13T21:56:18.694Z,1.93
2018-06-13T21:58:47.485Z,1.33
2018-06-13T22:01:16.236Z,1.00
2018-06-13T22:03:45.002Z,1.80
2018-06-13T22:06:13.842Z,1.30
2018-06-13T22:08:42.614Z,1.50
2018-06-13T22:11:11.389Z,1.70
2018-06-13T22:13:40.249Z,1.47
2018-06-13T22:16:09.013Z,1.30
2018-06-13T22:18:37.617Z,1.23
2018-06-13T22:21:06.389Z,1.60
2018-06-13T22:23:34.951Z,1.70
2018-06-13T22:26:03.637Z,1.50
2018-06-13T22:28:32.405Z,1.50
2018-06-13T22:31:01.178Z,1.33
2018-06-13T22:33:29.946Z,1.30
2018-06-13T22:35:58.830Z,1.50
2018-06-13T22:38:27.594Z,1.47
2018-06-13T22:40:56.559Z,1.60
2018-06-13T22:43:25.346Z,1.57
2018-06-13T22:45:54.133Z,1.87
2018-06-13T22:48:22.905Z,1.60
2018-06-13T22:50:51.656Z,1.73
2018-06-13T22:53:20.529Z,1.47
2018-06-13T22:55:49.220Z,1.50
2018-06-13T22:58:18.001Z,1.83
2018-06-13T23:01:01.134Z,1.70
2018-06-13T23:03:30.853Z,1.37
2018-06-13T23:06:01.573Z,1.80
2018-06-13T23:08:31.093Z,1.57
2018-06-13T23:10:59.904Z,1.43
2018-06-13T23:13:28.685Z,1.83
2018-06-13T23:15:57.442Z,1.67
2018-06-13T23:18:27.160Z,1.50
2018-06-13T23:20:55.966Z,1.60
2018-06-13T23:23:24.641Z,1.70
2018-06-13T23:25:54.441Z,1.83
2018-06-13T23:28:23.246Z,1.60
2018-06-13T23:30:52.133Z,1.50
2018-06-13T23:33:20.911Z,2.13
2018-06-13T23:35:49.513Z,1.87
2018-06-13T23:38:18.202Z,1.87
2018-06-13T23:40:46.920Z,2.00
2018-06-13T23:43:15.593Z,1.70
2018-06-13T23:45:44.359Z,2.03
2018-06-13T23:48:13.277Z,1.90
2018-06-13T23:50:42.070Z,1.77
2018-06-13T23:53:10.817Z,1.90
2018-06-13T23:55:39.364Z,1.80
2018-06-13T23:58:08.042Z,1.90
